Time;durP1;ratioP1;P1;durP2;ratioP2;P2;SDS_P1;SDS_P2;PMS_P1;PMS_P2;Temp;Humidity;BMP_temperature;BMP_pressure;BME280_temperature;BME280_humidity;BME280_pressure;Samples;Min_cycle;Max_cycle;Signal;HPM_P1;HPM_P2
2020/12/27 00:02:16;;;;;;;6.07;4.65;;;1.70;99.90;;;;;;6189684;23;20048;-82
2020/12/27 00:04:43;;;;;;;6.40;4.70;;;1.70;99.90;;;;;;6215664;23;20025;-82
2020/12/27 00:07:16;;;;;;;7.88;4.63;;;1.70;99.90;;;;;;6189111;23;20021;-82
2020/12/27 00:09:44;;;;;;;11.40;4.68;;;1.70;99.90;;;;;;6188736;23;20025;-83
2020/12/27 00:12:12;;;;;;;9.50;4.95;;;1.60;99.90;;;;;;6189334;23;20103;-83
2020/12/27 00:14:38;;;;;;;8.82;4.95;;;1.70;99.90;;;;;;6189144;23;20877;-82
2020/12/27 00:17:12;;;;;;;9.85;4.32;;;1.70;99.90;;;;;;6189903;23;20020;-84
2020/12/27 00:19:39;;;;;;;7.78;4.30;;;1.70;99.90;;;;;;6215979;23;20111;-83
2020/12/27 00:22:06;;;;;;;6.07;4.35;;;1.70;99.90;;;;;;6215833;23;20071;-82
2020/12/27 00:24:33;;;;;;;6.68;4.65;;;1.70;99.90;;;;;;6189802;23;20027;-84
2020/12/27 00:27:00;;;;;;;7.15;4.35;;;1.70;99.90;;;;;;6189660;23;20309;-83
2020/12/27 00:29:26;;;;;;;4.82;4.13;;;1.70;99.90;;;;;;6189469;23;20056;-82
2020/12/27 00:31:53;;;;;;;6.50;4.13;;;1.70;99.90;;;;;;6188642;23;20040;-84
2020/12/27 00:34:20;;;;;;;8.68;4.70;;;1.60;99.90;;;;;;6189474;23;20047;-84
2020/12/27 00:36:47;;;;;;;6.55;4.88;;;1.60;99.90;;;;;;6189437;23;20055;-84
2020/12/27 00:39:21;;;;;;;7.75;4.55;;;1.60;99.90;;;;;;6216636;23;20020;-86
2020/12/27 00:41:48;;;;;;;6.15;4.82;;;1.60;99.90;;;;;;6215613;23;20043;-87
2020/12/27 00:44:16;;;;;;;7.78;4.13;;;1.60;99.90;;;;;;6189904;23;20393;-85
2020/12/27 00:46:47;;;;;;;6.28;4.70;;;1.60;99.90;;;;;;6189465;23;20027;-83
2020/12/27 00:49:13;;;;;;;8.80;4.95;;;1.60;99.90;;;;;;6189405;23;20071;-84
2020/12/27 00:51:40;;;;;;;8.90;5.28;;;1.60;99.90;;;;;;6215944;23;20025;-83
2020/12/27 00:54:06;;;;;;;8.18;5.05;;;1.60;99.90;;;;;;6215710;23;20059;-82
2020/12/27 00:56:32;;;;;;;10.32;5.93;;;1.60;99.90;;;;;;6188843;23;20514;-81
2020/12/27 00:58:58;;;;;;;5.65;4.90;;;1.50;99.90;;;;;;6189078;23;20020;-82
2020/12/27 01:01:25;;;;;;;9.88;5.53;;;1.50;99.90;;;;;;6189156;23;20052;-83
2020/12/27 01:03:51;;;;;;;7.50;5.80;;;1.50;99.90;;;;;;6188858;23;20025;-83
2020/12/27 01:06:25;;;;;;;9.07;5.40;;;1.50;99.90;;;;;;6188762;23;20099;-82
2020/12/27 01:08:52;;;;;;;6.78;4.88;;;1.50;99.90;;;;;;6215400;23;20024;-83
2020/12/27 01:11:19;;;;;;;13.80;6.25;;;1.50;99.90;;;;;;6188826;23;20411;-81
2020/12/27 01:13:45;;;;;;;8.40;5.45;;;1.50;99.90;;;;;;6188542;23;20475;-82
2020/12/27 01:16:13;;;;;;;7.18;4.95;;;1.40;99.90;;;;;;6215516;23;20436;-82
2020/12/27 01:18:42;;;;;;;7.78;5.65;;;1.40;99.90;;;;;;6215491;23;20027;-83
2020/12/27 01:21:09;;;;;;;7.15;4.78;;;1.40;99.90;;;;;;6188888;23;20362;-83
2020/12/27 01:23:35;;;;;;;6.55;5.15;;;1.40;99.90;;;;;;6215038;23;20035;-84
2020/12/27 01:26:01;;;;;;;6.00;4.65;;;1.40;99.90;;;;;;6215104;23;20024;-82
2020/12/27 01:28:27;;;;;;;6.78;4.97;;;1.40;99.90;;;;;;6215054;23;20658;-82
2020/12/27 01:30:54;;;;;;;7.32;5.53;;;1.40;99.90;;;;;;6188858;23;20021;-82
2020/12/27 01:33:20;;;;;;;10.32;6.00;;;1.30;99.90;;;;;;6215019;23;20063;-84
2020/12/27 01:35:47;;;;;;;10.63;6.13;;;1.30;99.90;;;;;;6216028;23;20061;-83
2020/12/27 01:38:13;;;;;;;11.27;6.35;;;1.30;99.90;;;;;;6190834;23;20052;-82
2020/12/27 01:40:40;;;;;;;12.00;6.55;;;1.30;99.90;;;;;;6191027;23;20016;-82
2020/12/27 01:43:06;;;;;;;10.52;5.90;;;1.30;99.90;;;;;;6217075;23;20055;-83
2020/12/27 01:45:32;;;;;;;12.18;7.03;;;1.30;99.90;;;;;;6190859;23;20100;-81
2020/12/27 01:47:59;;;;;;;8.32;6.53;;;1.30;99.90;;;;;;6217174;23;20024;-83
2020/12/27 01:50:25;;;;;;;11.05;6.82;;;1.20;99.90;;;;;;6190888;23;20020;-82
2020/12/27 01:52:52;;;;;;;11.05;6.45;;;1.30;99.90;;;;;;6217173;23;20100;-82
2020/12/27 01:55:18;;;;;;;9.38;6.32;;;1.20;99.90;;;;;;6190551;23;20048;-82
2020/12/27 01:58:15;;;;;;;8.55;6.88;;;1.20;99.90;;;;;;6190770;23;20021;-82
2020/12/27 02:00:46;;;;;;;7.70;5.65;;;1.20;99.90;;;;;;6189990;23;20048;-81
2020/12/27 02:03:14;;;;;;;11.18;6.82;;;1.20;99.90;;;;;;6190625;23;20017;-84
2020/12/27 02:05:51;;;;;;;9.93;6.80;;;1.10;99.90;;;;;;6191710;23;20352;-82
2020/12/27 02:08:19;;;;;;;9.57;6.30;;;1.20;99.90;;;;;;6189645;23;20028;-81
2020/12/27 02:10:48;;;;;;;8.57;6.60;;;1.20;99.90;;;;;;6190307;23;20407;-82
2020/12/27 02:13:14;;;;;;;8.07;6.43;;;1.20;99.90;;;;;;6190099;23;20498;-82
2020/12/27 02:15:40;;;;;;;10.88;7.13;;;1.20;99.90;;;;;;6190444;23;20067;-83
2020/12/27 02:18:06;;;;;;;9.98;7.03;;;1.20;99.90;;;;;;6217038;23;20020;-82
2020/12/27 02:20:32;;;;;;;13.25;6.68;;;1.20;99.90;;;;;;6190584;23;20020;-84
2020/12/27 02:22:59;;;;;;;10.02;6.30;;;1.10;99.90;;;;;;6190509;23;20103;-82
2020/12/27 02:25:26;;;;;;;9.65;7.20;;;1.10;99.90;;;;;;6190039;23;20063;-82
2020/12/27 02:27:52;;;;;;;8.05;5.70;;;1.10;99.90;;;;;;6190334;23;20016;-82
2020/12/27 02:30:18;;;;;;;8.13;6.35;;;1.10;99.90;;;;;;6190266;23;20394;-82
2020/12/27 02:32:44;;;;;;;9.60;6.57;;;1.10;99.90;;;;;;6216415;23;20091;-82
2020/12/27 02:35:11;;;;;;;10.65;5.60;;;1.00;99.90;;;;;;6189985;23;20024;-85
2020/12/27 02:37:37;;;;;;;10.05;6.00;;;1.10;99.90;;;;;;6216430;23;20048;-82
2020/12/27 02:40:04;;;;;;;9.57;6.30;;;1.00;99.90;;;;;;6215814;23;20091;-83
2020/12/27 02:42:30;;;;;;;8.10;5.22;;;1.00;99.90;;;;;;6190285;23;20020;-82
2020/12/27 02:45:10;;;;;;;6.78;5.85;;;1.00;99.90;;;;;;6190319;23;20052;-83
2020/12/27 02:47:39;;;;;;;9.60;6.18;;;0.90;99.90;;;;;;6189855;23;20463;-82
2020/12/27 02:50:11;;;;;;;7.20;5.20;;;0.90;99.90;;;;;;6216740;23;20336;-83
2020/12/27 02:52:38;;;;;;;8.75;5.43;;;0.90;99.90;;;;;;6190628;23;20020;-83
2020/12/27 02:55:05;;;;;;;8.68;5.38;;;0.80;99.90;;;;;;6216319;23;20096;-83
2020/12/27 02:57:32;;;;;;;9.20;5.40;;;0.80;99.90;;;;;;6190166;23;20503;-82
2020/12/27 02:59:58;;;;;;;6.15;5.55;;;0.80;99.90;;;;;;6189671;23;20517;-82
2020/12/27 03:02:24;;;;;;;8.18;5.75;;;0.70;99.90;;;;;;6189580;23;20017;-81
2020/12/27 03:04:51;;;;;;;6.45;5.38;;;0.70;99.90;;;;;;6216342;23;20020;-82
2020/12/27 03:07:17;;;;;;;9.20;5.53;;;0.60;99.90;;;;;;6190002;23;20076;-82
2020/12/27 03:09:43;;;;;;;6.40;5.05;;;0.60;99.90;;;;;;6216487;23;20363;-83
2020/12/27 03:12:09;;;;;;;6.35;5.32;;;0.50;99.90;;;;;;6189885;23;20059;-83
2020/12/27 03:14:36;;;;;;;7.22;5.47;;;0.50;99.90;;;;;;6189906;23;20092;-82
2020/12/27 03:17:02;;;;;;;6.25;5.00;;;0.50;99.90;;;;;;6216309;23;20444;-82
2020/12/27 03:19:28;;;;;;;7.60;5.25;;;0.50;99.90;;;;;;6189743;23;20078;-82
2020/12/27 03:21:54;;;;;;;8.43;4.70;;;0.40;99.90;;;;;;6189957;23;20131;-82
2020/12/27 03:24:21;;;;;;;5.57;4.70;;;0.40;99.90;;;;;;6189764;23;20021;-82
2020/12/27 03:26:47;;;;;;;5.68;4.78;;;0.40;99.90;;;;;;6216102;23;20020;-82
2020/12/27 03:29:14;;;;;;;10.20;5.05;;;0.40;99.90;;;;;;6216213;23;20095;-82
2020/12/27 03:31:40;;;;;;;9.07;5.18;;;0.30;99.90;;;;;;6189710;23;20176;-81
2020/12/27 03:34:07;;;;;;;5.35;4.82;;;0.30;99.90;;;;;;6216074;23;20096;-81
2020/12/27 03:36:43;;;;;;;8.48;4.38;;;0.40;99.90;;;;;;6215995;23;20075;-84
2020/12/27 03:39:10;;;;;;;5.18;4.20;;;0.30;99.90;;;;;;6215707;23;20021;-82
2020/12/27 03:41:37;;;;;;;7.10;4.78;;;0.30;99.90;;;;;;6189802;23;20023;-85
2020/12/27 03:44:04;;;;;;;4.38;3.95;;;0.30;99.90;;;;;;6216029;23;20091;-82
2020/12/27 03:46:30;;;;;;;7.55;4.70;;;0.30;99.90;;;;;;6189357;23;20094;-81
2020/12/27 03:48:56;;;;;;;6.30;4.30;;;0.40;99.90;;;;;;6189171;23;20024;-82
2020/12/27 03:51:22;;;;;;;6.00;4.13;;;0.30;99.90;;;;;;6189598;23;20024;-82
2020/12/27 03:53:49;;;;;;;6.85;4.22;;;0.30;99.90;;;;;;6189381;23;20025;-82
2020/12/27 03:56:15;;;;;;;5.05;3.88;;;0.30;99.90;;;;;;6189601;23;20020;-82
2020/12/27 03:58:41;;;;;;;8.13;4.40;;;0.30;99.90;;;;;;6189291;23;20468;-82
2020/12/27 04:01:08;;;;;;;4.05;3.67;;;0.30;99.90;;;;;;6189211;23;20025;-83
2020/12/27 04:03:34;;;;;;;4.97;4.13;;;0.30;99.90;;;;;;6189665;23;20023;-82
2020/12/27 04:06:02;;;;;;;7.93;4.25;;;0.30;99.90;;;;;;6189590;23;20095;-82
2020/12/27 04:08:29;;;;;;;4.88;4.43;;;0.30;99.90;;;;;;6215829;23;20063;-82
2020/12/27 04:10:56;;;;;;;6.75;4.47;;;0.30;99.90;;;;;;6215773;23;20078;-83
2020/12/27 04:13:22;;;;;;;6.07;4.15;;;0.30;99.90;;;;;;6189263;23;20352;-82
2020/12/27 04:15:49;;;;;;;5.03;4.05;;;0.30;99.90;;;;;;6188897;23;20518;-81
2020/12/27 04:18:15;;;;;;;6.53;3.95;;;0.20;99.90;;;;;;6188974;23;20091;-82
2020/12/27 04:20:42;;;;;;;5.80;3.70;;;0.20;99.90;;;;;;6189443;23;20052;-83
2020/12/27 04:23:08;;;;;;;6.22;4.20;;;0.20;99.90;;;;;;6215611;23;20021;-82
2020/12/27 04:25:34;;;;;;;4.97;3.58;;;0.10;99.90;;;;;;6189359;23;20055;-82
2020/12/27 04:28:00;;;;;;;4.82;3.63;;;0.20;99.90;;;;;;6215224;23;20024;-82
2020/12/27 04:30:27;;;;;;;6.47;3.63;;;0.10;99.90;;;;;;6189197;23;20086;-81
2020/12/27 04:32:53;;;;;;;5.15;3.10;;;0.10;99.90;;;;;;6189456;23;20060;-85
2020/12/27 04:35:19;;;;;;;4.20;3.10;;;0.10;99.90;;;;;;6189134;23;20125;-83
2020/12/27 04:37:51;;;;;;;3.35;2.92;;;0.10;99.90;;;;;;6190623;23;20095;-86
2020/12/27 04:40:18;;;;;;;6.18;3.13;;;0.10;99.90;;;;;;6215479;23;20108;-83
2020/12/27 04:42:48;;;;;;;4.60;3.22;;;0.10;99.90;;;;;;6189111;23;20021;-82
2020/12/27 04:45:14;;;;;;;6.82;3.40;;;0.10;99.90;;;;;;6188758;23;20027;-81
2020/12/27 04:47:41;;;;;;;8.20;3.60;;;0.10;99.90;;;;;;6189191;23;20043;-83
2020/12/27 04:50:07;;;;;;;4.15;3.70;;;0.00;99.90;;;;;;6189294;23;20083;-80
2020/12/27 04:52:34;;;;;;;5.05;3.05;;;0.00;99.90;;;;;;6189092;23;20048;-82
2020/12/27 04:55:01;;;;;;;2.95;2.70;;;0.00;99.90;;;;;;6215402;23;20095;-82
2020/12/27 04:57:28;;;;;;;8.05;3.58;;;0.10;99.90;;;;;;6189039;23;20021;-82
2020/12/27 04:59:56;;;;;;;4.43;2.85;;;0.10;99.90;;;;;;6215185;23;20356;-84
2020/12/27 05:02:22;;;;;;;4.97;3.50;;;0.20;99.90;;;;;;6189451;23;20052;-83
2020/12/27 05:04:49;;;;;;;7.13;3.88;;;0.20;99.90;;;;;;6189357;23;20025;-83
2020/12/27 05:07:19;;;;;;;5.05;3.05;;;0.20;99.90;;;;;;6189399;23;20058;-84
2020/12/27 05:09:49;;;;;;;3.75;3.22;;;0.10;99.90;;;;;;6189770;23;20087;-85
2020/12/27 05:12:16;;;;;;;4.47;3.15;;;0.10;99.90;;;;;;6191181;23;20056;-85
2020/12/27 05:14:45;;;;;;;5.50;3.40;;;0.10;99.90;;;;;;6217105;23;20044;-84
2020/12/27 05:17:14;;;;;;;4.95;3.75;;;0.10;99.90;;;;;;6191354;23;20451;-83
2020/12/27 05:19:41;;;;;;;5.40;3.47;;;0.00;99.90;;;;;;6190659;23;20023;-84
2020/12/27 05:22:09;;;;;;;5.78;3.88;;;-0.10;99.90;;;;;;6190882;23;20040;-83
2020/12/27 05:24:37;;;;;;;5.30;3.65;;;-0.10;99.90;;;;;;6190776;23;20099;-84
2020/12/27 05:27:14;;;;;;;5.10;3.65;;;-0.10;99.90;;;;;;6217575;23;20044;-84
2020/12/27 05:29:42;;;;;;;5.40;3.47;;;-0.10;99.90;;;;;;6190967;23;20059;-83
2020/12/27 05:32:09;;;;;;;7.88;4.00;;;-0.10;99.90;;;;;;6190943;23;20092;-83
2020/12/27 05:34:36;;;;;;;4.22;3.53;;;-0.10;99.90;;;;;;6217195;23;20100;-82
2020/12/27 05:37:05;;;;;;;4.00;3.40;;;-0.20;99.90;;;;;;6217315;23;20016;-85
2020/12/27 05:39:31;;;;;;;5.20;3.72;;;-0.20;99.90;;;;;;6217286;23;20020;-85
2020/12/27 05:42:06;;;;;;;5.13;3.33;;;-0.20;99.90;;;;;;6217359;23;20020;-87
2020/12/27 05:44:35;;;;;;;6.25;4.13;;;-0.20;99.90;;;;;;6190667;23;20479;-83
2020/12/27 05:47:02;;;;;;;6.30;3.80;;;-0.30;99.90;;;;;;6217242;23;20028;-83
2020/12/27 05:49:28;;;;;;;6.20;4.07;;;-0.30;99.90;;;;;;6190699;23;20028;-84
2020/12/27 05:51:57;;;;;;;4.30;3.83;;;-0.30;99.90;;;;;;6190960;23;20031;-86
2020/12/27 05:54:34;;;;;;;6.28;3.78;;;-0.30;99.90;;;;;;6191090;23;20017;-83
2020/12/27 05:57:02;;;;;;;5.85;3.58;;;-0.30;99.90;;;;;;6191540;23;20051;-83
2020/12/27 05:59:31;;;;;;;8.45;3.88;;;-0.30;99.90;;;;;;6191228;23;20032;-83
2020/12/27 06:01:59;;;;;;;7.30;3.72;;;-0.40;99.90;;;;;;6190857;23;20020;-83
2020/12/27 06:04:53;;;;;;;4.30;3.88;;;-0.40;99.90;;;;;;6217949;23;20021;-83
2020/12/27 06:07:43;;;;;;;7.75;4.32;;;-0.40;99.90;;;;;;6190754;23;20581;-84
2020/12/27 06:10:10;;;;;;;5.55;4.15;;;-0.50;99.90;;;;;;6191446;23;20078;-84
2020/12/27 06:12:55;;;;;;;6.28;4.03;;;-0.50;99.90;;;;;;6191298;23;20021;-85
2020/12/27 06:15:29;;;;;;;4.85;4.05;;;-0.50;99.90;;;;;;6190661;23;20537;-83
2020/12/27 06:18:07;;;;;;;5.65;3.97;;;-0.60;99.90;;;;;;6217622;23;20013;-85
2020/12/27 06:20:35;;;;;;;4.78;3.92;;;-0.60;99.90;;;;;;6217613;23;20028;-83
2020/12/27 06:23:05;;;;;;;6.28;3.70;;;-0.60;99.90;;;;;;6191747;23;20104;-84
2020/12/27 06:25:32;;;;;;;6.85;4.63;;;-0.60;99.90;;;;;;6192626;23;20500;-83
2020/12/27 06:27:59;;;;;;;8.00;4.80;;;-0.60;99.90;;;;;;6192178;23;20452;-84
2020/12/27 06:30:44;;;;;;;5.82;4.18;;;-0.70;99.90;;;;;;6193605;23;20052;-83
2020/12/27 06:33:19;;;;;;;5.53;4.38;;;-0.70;99.90;;;;;;6191379;23;20455;-84
2020/12/27 06:35:46;;;;;;;6.40;4.50;;;-0.70;99.90;;;;;;6219235;23;20343;-85
2020/12/27 06:38:23;;;;;;;5.47;4.22;;;-0.70;99.90;;;;;;6191787;23;20021;-83
2020/12/27 06:41:10;;;;;;;4.05;3.65;;;-0.80;99.90;;;;;;6190990;23;20489;-83
2020/12/27 06:43:41;;;;;;;7.85;3.70;;;-0.80;99.90;;;;;;6168357;23;20089;-83
2020/12/27 06:46:45;;;;;;;5.57;4.13;;;-0.80;99.90;;;;;;6218897;23;20091;-84
2020/12/27 06:49:14;;;;;;;5.25;3.78;;;-0.80;99.90;;;;;;6143039;23;20021;-83
2020/12/27 06:51:44;;;;;;;4.55;3.50;;;-0.80;99.90;;;;;;6195618;23;20028;-82
2020/12/27 06:54:12;;;;;;;4.50;3.50;;;-0.80;99.90;;;;;;6194917;23;20482;-84
2020/12/27 06:56:46;;;;;;;5.60;4.18;;;-0.80;99.90;;;;;;6221817;23;20048;-82
2020/12/27 06:59:12;;;;;;;4.05;3.42;;;-0.80;99.90;;;;;;6221634;23;20025;-83
2020/12/27 07:01:38;;;;;;;6.07;3.60;;;-0.80;99.90;;;;;;6195086;23;20096;-85
2020/12/27 07:04:16;;;;;;;6.45;4.38;;;-0.80;99.90;;;;;;6195536;23;20027;-84
2020/12/27 07:06:44;;;;;;;3.95;3.38;;;-0.80;99.90;;;;;;6194801;23;20021;-83
2020/12/27 07:09:22;;;;;;;5.13;3.65;;;-0.80;99.90;;;;;;6221828;23;20059;-83
2020/12/27 07:12:03;;;;;;;4.32;3.47;;;-0.80;99.90;;;;;;6195218;23;20025;-83
2020/12/27 07:14:30;;;;;;;4.43;3.60;;;-0.80;99.90;;;;;;6221806;23;20017;-84
2020/12/27 07:16:56;;;;;;;5.13;3.58;;;-0.80;99.90;;;;;;6222363;23;20025;-83
2020/12/27 07:19:28;;;;;;;4.07;3.60;;;-0.80;99.90;;;;;;6195893;23;20455;-83
2020/12/27 07:22:03;;;;;;;3.65;3.33;;;-0.80;99.90;;;;;;6222000;23;20051;-84
2020/12/27 07:24:33;;;;;;;5.55;3.72;;;-0.80;99.90;;;;;;6194115;23;20025;-82
2020/12/27 07:27:03;;;;;;;5.93;3.70;;;-0.80;99.90;;;;;;6221610;23;20467;-83
2020/12/27 07:29:30;;;;;;;5.43;3.90;;;-0.90;99.90;;;;;;6195102;23;20356;-83
2020/12/27 07:31:59;;;;;;;8.20;3.88;;;-0.90;99.90;;;;;;6222584;23;20031;-83
2020/12/27 07:34:29;;;;;;;6.07;3.53;;;-0.90;99.90;;;;;;6194499;23;20409;-82
2020/12/27 07:37:03;;;;;;;6.15;4.30;;;-0.90;99.90;;;;;;6193696;23;20047;-83
2020/12/27 07:39:49;;;;;;;6.60;4.70;;;-0.90;99.90;;;;;;6219918;23;20099;-84
2020/12/27 07:42:24;;;;;;;7.50;4.18;;;-0.90;99.90;;;;;;6193465;23;20403;-83
2020/12/27 07:44:52;;;;;;;6.28;4.43;;;-1.00;99.90;;;;;;6220820;23;20021;-84
2020/12/27 07:47:18;;;;;;;5.30;4.60;;;-0.90;99.90;;;;;;6220457;23;20025;-83
2020/12/27 07:50:05;;;;;;;7.65;4.68;;;-0.90;99.90;;;;;;6219184;23;20025;-82
2020/12/27 07:52:47;;;;;;;5.45;4.20;;;-1.00;99.90;;;;;;6219676;23;20063;-83
2020/12/27 07:55:23;;;;;;;9.50;4.95;;;-1.00;99.90;;;;;;6194638;23;20055;-83
2020/12/27 07:57:49;;;;;;;8.95;4.40;;;-0.90;99.90;;;;;;6194426;23;20025;-83
2020/12/27 08:00:20;;;;;;;5.18;4.25;;;-0.90;99.90;;;;;;6194771;23;20052;-83
2020/12/27 08:02:47;;;;;;;7.10;3.95;;;-0.80;99.90;;;;;;6193294;23;20020;-83
2020/12/27 08:05:14;;;;;;;6.18;4.53;;;-0.80;99.90;;;;;;6193508;23;20020;-83
2020/12/27 08:07:40;;;;;;;5.43;4.43;;;-0.80;99.90;;;;;;6192292;23;20052;-83
2020/12/27 08:10:20;;;;;;;5.32;4.68;;;-0.80;99.90;;;;;;6220509;23;20032;-83
2020/12/27 08:12:55;;;;;;;6.75;5.18;;;-0.80;99.90;;;;;;6193423;23;20336;-83
2020/12/27 08:15:22;;;;;;;4.95;4.40;;;-0.80;99.90;;;;;;6218939;23;20024;-83
2020/12/27 08:17:57;;;;;;;6.40;4.45;;;-0.80;99.90;;;;;;6220178;23;20447;-84
2020/12/27 08:20:24;;;;;;;6.88;4.70;;;-0.80;99.90;;;;;;6220951;23;20355;-84
2020/12/27 08:23:05;;;;;;;6.03;4.68;;;-0.70;99.90;;;;;;6193613;23;20028;-83
2020/12/27 08:25:32;;;;;;;7.55;4.75;;;-0.70;99.90;;;;;;6219808;23;20029;-83
2020/12/27 08:28:00;;;;;;;6.25;5.10;;;-0.70;99.90;;;;;;6192212;23;20487;-83
2020/12/27 08:30:27;;;;;;;5.85;5.03;;;-0.70;99.90;;;;;;6219851;23;20024;-82
2020/12/27 08:33:18;;;;;;;7.03;4.70;;;-0.70;99.90;;;;;;6218298;23;20017;-83
2020/12/27 08:35:49;;;;;;;6.43;4.38;;;-0.70;99.90;;;;;;6219764;23;20055;-83
2020/12/27 08:38:21;;;;;;;4.68;4.13;;;-0.60;99.90;;;;;;6219092;23;20545;-82
2020/12/27 08:40:59;;;;;;;6.35;4.78;;;-0.60;99.90;;;;;;6191654;23;20048;-84
2020/12/27 08:43:58;;;;;;;5.43;4.88;;;-0.60;99.90;;;;;;6219427;23;20025;-83
2020/12/27 08:46:33;;;;;;;5.40;4.85;;;-0.60;99.90;;;;;;6192688;23;20425;-83
2020/12/27 08:49:11;;;;;;;6.38;5.05;;;-0.60;99.90;;;;;;6193565;23;20025;-83
2020/12/27 08:51:52;;;;;;;8.13;5.13;;;-0.50;99.90;;;;;;6219716;23;20063;-83
2020/12/27 08:54:20;;;;;;;11.60;4.97;;;-0.50;99.90;;;;;;6192651;23;20020;-84
2020/12/27 08:56:47;;;;;;;7.43;4.60;;;-0.50;99.90;;;;;;6194001;23;20044;-83
2020/12/27 08:59:14;;;;;;;5.10;4.10;;;-0.50;99.90;;;;;;6219313;23;21154;-82
2020/12/27 09:01:41;;;;;;;7.72;4.72;;;-0.50;99.90;;;;;;6193550;23;20436;-82
2020/12/27 09:04:18;;;;;;;5.15;4.18;;;-0.40;99.90;;;;;;6200611;23;20046;-83
2020/12/27 09:06:57;;;;;;;14.48;4.78;;;-0.30;99.90;;;;;;6199143;23;20399;-82
2020/12/27 09:09:24;;;;;;;5.10;4.18;;;-0.30;99.90;;;;;;6193307;23;20076;-83
2020/12/27 09:11:51;;;;;;;7.40;4.13;;;-0.20;99.90;;;;;;6192466;23;20530;-82
2020/12/27 09:14:37;;;;;;;5.40;4.20;;;-0.20;99.90;;;;;;6221419;23;20021;-82
2020/12/27 09:17:06;;;;;;;5.20;4.70;;;-0.20;99.90;;;;;;6194766;23;20078;-82
2020/12/27 09:19:36;;;;;;;7.70;4.25;;;-0.20;99.90;;;;;;6220082;23;20047;-84
2020/12/27 09:22:04;;;;;;;5.93;4.30;;;-0.20;99.90;;;;;;6194176;23;20047;-82
2020/12/27 09:24:31;;;;;;;4.20;3.80;;;-0.20;99.90;;;;;;6194391;23;20051;-83
2020/12/27 09:27:11;;;;;;;4.88;4.30;;;-0.20;99.90;;;;;;6220175;23;20055;-83
2020/12/27 09:29:38;;;;;;;4.20;3.80;;;-0.20;99.90;;;;;;6221996;23;20051;-83
2020/12/27 09:32:12;;;;;;;6.00;4.05;;;-0.20;99.90;;;;;;6219996;23;20025;-82
2020/12/27 09:34:40;;;;;;;7.45;3.67;;;-0.10;99.90;;;;;;6193566;23;20505;-82
2020/12/27 09:37:17;;;;;;;4.43;4.03;;;-0.10;99.90;;;;;;6194014;23;20444;-83
2020/12/27 09:39:53;;;;;;;7.03;4.22;;;-0.10;99.90;;;;;;6220583;23;20016;-82
2020/12/27 09:42:24;;;;;;;6.72;4.15;;;-0.10;99.90;;;;;;6221038;23;20536;-82
2020/12/27 09:44:52;;;;;;;6.22;3.63;;;0.00;99.90;;;;;;6220732;23;20031;-84
2020/12/27 09:47:26;;;;;;;5.82;3.53;;;0.00;99.90;;;;;;6221711;23;20051;-82
2020/12/27 09:50:08;;;;;;;4.72;3.53;;;-0.10;99.90;;;;;;6221841;23;20066;-82
2020/12/27 09:52:45;;;;;;;4.15;3.58;;;0.00;99.90;;;;;;6195435;23;20031;-82
2020/12/27 09:55:12;;;;;;;3.83;3.47;;;0.00;99.90;;;;;;6193936;23;20052;-82
2020/12/27 09:57:40;;;;;;;5.93;3.28;;;0.00;99.90;;;;;;6195944;23;20021;-82
2020/12/27 10:00:07;;;;;;;4.18;3.20;;;0.10;99.90;;;;;;6196863;23;20067;-82
2020/12/27 10:02:33;;;;;;;5.70;3.55;;;0.20;99.90;;;;;;6222973;23;20021;-82
2020/12/27 10:05:00;;;;;;;4.57;3.33;;;0.20;99.90;;;;;;6222492;23;20052;-83
2020/12/27 10:07:26;;;;;;;4.82;2.97;;;0.20;99.90;;;;;;6195937;23;20343;-83
2020/12/27 10:09:53;;;;;;;77.78;32.85;;;0.20;99.90;;;;;;6222509;23;20028;-83
2020/12/27 10:12:19;;;;;;;12.77;8.20;;;0.30;99.90;;;;;;6222646;23;20028;-82
2020/12/27 10:14:45;;;;;;;5.38;4.55;;;0.30;99.90;;;;;;6220660;23;20027;-83
2020/12/27 10:17:12;;;;;;;3.83;3.22;;;0.30;99.90;;;;;;6196008;23;20027;-83
2020/12/27 10:19:38;;;;;;;3.53;3.17;;;0.30;99.90;;;;;;6194142;23;20471;-81
2020/12/27 10:22:04;;;;;;;4.63;3.53;;;0.30;99.90;;;;;;6222706;23;20020;-82
2020/12/27 10:24:34;;;;;;;4.07;3.75;;;0.30;99.90;;;;;;6194831;23;20035;-81
2020/12/27 10:27:02;;;;;;;3.40;3.10;;;0.30;99.90;;;;;;6194766;23;20029;-81
2020/12/27 10:29:29;;;;;;;3.58;3.28;;;0.30;99.90;;;;;;6195547;23;20063;-82
2020/12/27 10:31:59;;;;;;;5.68;3.63;;;0.30;99.90;;;;;;6195599;23;20059;-82
2020/12/27 10:34:26;;;;;;;4.72;3.33;;;0.30;99.90;;;;;;6221040;23;20024;-83
2020/12/27 10:36:54;;;;;;;3.78;3.25;;;0.30;99.90;;;;;;6222042;23;20104;-82
2020/12/27 10:39:21;;;;;;;3.85;3.08;;;0.30;99.90;;;;;;6195940;23;20021;-81
2020/12/27 10:41:48;;;;;;;4.38;3.40;;;0.30;99.90;;;;;;6195425;23;20052;-82
2020/12/27 10:44:17;;;;;;;3.70;3.13;;;0.20;99.90;;;;;;6196053;23;20407;-83
2020/12/27 10:46:45;;;;;;;5.50;3.50;;;0.30;99.90;;;;;;6197458;23;20028;-83
2020/12/27 10:49:12;;;;;;;4.20;3.40;;;0.20;99.90;;;;;;6222880;23;20020;-83
2020/12/27 10:51:40;;;;;;;5.45;3.60;;;0.30;99.90;;;;;;6195776;23;20075;-84
2020/12/27 10:54:07;;;;;;;4.22;3.53;;;0.20;99.90;;;;;;6195890;23;20021;-83
2020/12/27 10:56:34;;;;;;;3.33;3.13;;;0.20;99.90;;;;;;6195585;23;20067;-83
2020/12/27 10:59:00;;;;;;;4.53;3.78;;;0.20;99.90;;;;;;6185778;23;20052;-84
2020/12/27 11:01:27;;;;;;;4.15;3.08;;;0.20;99.90;;;;;;6129980;23;20512;-85
2020/12/27 11:03:53;;;;;;;3.95;3.53;;;0.20;99.90;;;;;;6156888;23;20381;-83
2020/12/27 11:06:32;;;;;;;3.38;3.10;;;0.20;99.90;;;;;;6131761;23;20033;-84
2020/12/27 11:08:59;;;;;;;3.00;2.78;;;0.20;99.90;;;;;;6131486;23;20032;-83
2020/12/27 11:11:35;;;;;;;3.90;3.00;;;0.20;99.90;;;;;;6134017;23;20112;-83
2020/12/27 11:14:03;;;;;;;4.47;3.75;;;0.30;99.90;;;;;;6131390;23;20033;-84
2020/12/27 11:16:31;;;;;;;3.38;3.17;;;0.30;99.90;;;;;;6132337;23;20067;-84
2020/12/27 11:18:58;;;;;;;3.30;2.97;;;0.30;99.90;;;;;;6158218;23;20076;-84
2020/12/27 11:21:24;;;;;;;3.10;2.63;;;0.40;99.90;;;;;;6132387;23;20041;-83
2020/12/27 11:23:50;;;;;;;3.50;3.20;;;0.40;99.90;;;;;;6158403;23;20488;-83
2020/12/27 11:26:18;;;;;;;3.20;2.90;;;0.40;99.90;;;;;;6132949;23;20025;-83
2020/12/27 11:28:45;;;;;;;3.03;2.72;;;0.40;99.90;;;;;;6159183;23;20053;-84
2020/12/27 11:31:17;;;;;;;3.90;3.28;;;0.50;99.90;;;;;;6159337;23;20028;-84
2020/12/27 11:33:47;;;;;;;4.55;3.13;;;0.50;99.90;;;;;;6159166;23;20026;-83
2020/12/27 11:36:14;;;;;;;3.55;3.00;;;0.50;99.90;;;;;;6133426;23;20021;-84
2020/12/27 11:38:41;;;;;;;2.75;2.55;;;0.60;99.90;;;;;;6132850;23;20056;-84
2020/12/27 11:41:11;;;;;;;3.20;2.90;;;0.60;99.90;;;;;;6133314;23;20052;-84
2020/12/27 11:43:37;;;;;;;3.38;3.08;;;0.60;99.90;;;;;;6132694;23;20105;-85
2020/12/27 11:46:04;;;;;;;3.15;2.80;;;0.70;99.90;;;;;;6159213;23;20076;-84
2020/12/27 11:48:30;;;;;;;3.17;2.80;;;0.80;99.90;;;;;;6132743;23;20074;-84
2020/12/27 11:50:56;;;;;;;3.03;2.72;;;0.80;99.90;;;;;;6132870;23;20032;-84
2020/12/27 11:53:23;;;;;;;5.55;2.70;;;0.80;99.90;;;;;;6159567;23;20356;-84
2020/12/27 11:55:50;;;;;;;2.80;2.60;;;0.80;99.90;;;;;;6133450;23;20021;-84
2020/12/27 11:58:16;;;;;;;4.13;2.90;;;0.90;99.90;;;;;;6133322;23;20026;-84
2020/12/27 12:00:42;;;;;;;4.22;2.83;;;0.90;99.90;;;;;;6151324;23;20064;-84
2020/12/27 12:03:08;;;;;;;4.03;2.60;;;0.90;99.90;;;;;;6157465;23;20017;-84
2020/12/27 12:05:35;;;;;;;3.10;2.80;;;1.00;99.90;;;;;;6157237;23;20037;-83
2020/12/27 12:08:01;;;;;;;3.75;2.70;;;1.00;99.90;;;;;;6157234;23;20487;-84
2020/12/27 12:10:27;;;;;;;3.60;2.72;;;1.00;99.90;;;;;;6158025;23;20033;-85
2020/12/27 12:12:54;;;;;;;2.60;2.40;;;1.00;99.90;;;;;;6157424;23;20388;-83
2020/12/27 12:15:20;;;;;;;3.55;2.40;;;1.00;99.90;;;;;;6157292;23;20022;-84
2020/12/27 12:17:46;;;;;;;2.63;2.22;;;1.10;99.90;;;;;;6163770;23;20025;-85
2020/12/27 12:22:57;;;;;;;2.58;2.30;;;1.00;99.90;;;;;;6163326;23;20056;-85
2020/12/27 12:25:23;;;;;;;2.97;2.50;;;1.10;99.90;;;;;;6162498;23;20026;-84
2020/12/27 12:27:50;;;;;;;2.47;2.28;;;1.10;99.90;;;;;;6160951;23;20101;-84
2020/12/27 12:30:16;;;;;;;2.00;1.90;;;1.10;99.90;;;;;;6163830;23;20053;-83
2020/12/27 12:32:42;;;;;;;2.22;1.92;;;1.10;99.90;;;;;;6162317;23;20053;-84
2020/12/27 12:35:09;;;;;;;2.00;1.90;;;1.20;99.90;;;;;;6161479;23;20018;-85
2020/12/27 12:37:36;;;;;;;2.78;1.77;;;1.20;99.90;;;;;;6160432;23;20028;-83
2020/12/27 12:40:05;;;;;;;1.98;1.80;;;1.20;99.90;;;;;;6159658;23;20072;-85
2020/12/27 12:42:36;;;;;;;2.20;2.00;;;1.20;99.90;;;;;;6157090;23;20338;-83
2020/12/27 12:45:06;;;;;;;2.88;2.42;;;1.20;99.90;;;;;;6156230;23;20381;-84
2020/12/27 12:47:33;;;;;;;2.30;2.10;;;1.20;99.90;;;;;;6155340;23;20026;-84
2020/12/27 12:49:59;;;;;;;2.00;1.90;;;1.20;99.90;;;;;;6155332;23;20053;-83
2020/12/27 12:52:25;;;;;;;3.10;2.17;;;1.20;99.90;;;;;;6155707;23;20021;-83
2020/12/27 12:54:52;;;;;;;1.90;1.80;;;1.20;99.90;;;;;;6156983;23;20024;-83
2020/12/27 12:57:18;;;;;;;2.10;1.83;;;1.10;99.90;;;;;;6154898;23;20018;-83
2020/12/27 12:59:44;;;;;;;2.03;1.92;;;1.10;99.90;;;;;;6154068;23;20064;-84
2020/12/27 13:02:10;;;;;;;1.98;1.88;;;1.10;99.90;;;;;;6178315;23;20037;-83
2020/12/27 13:04:37;;;;;;;3.25;1.65;;;1.20;99.90;;;;;;6155144;23;20056;-83
2020/12/27 13:07:03;;;;;;;2.95;1.80;;;1.10;99.90;;;;;;6154000;23;20413;-83